sensor_id;sensor_type;location;lat;lon;timestamp;P1;durP1;ratioP1;P2;durP2;ratioP2
47161;SDS011;32921;53.256;8.198;2023-05-07T00:00:08;24.33;;;14.05;;
47161;SDS011;32921;53.256;8.198;2023-05-07T00:02:34;28.67;;;15.18;;
47161;SDS011;32921;53.256;8.198;2023-05-07T00:05:00;28.00;;;18.08;;
47161;SDS011;32921;53.256;8.198;2023-05-07T00:07:27;21.10;;;10.40;;
47161;SDS011;32921;53.256;8.198;2023-05-07T00:09:52;32.67;;;19.23;;
47161;SDS011;32921;53.256;8.198;2023-05-07T00:12:18;31.27;;;19.65;;
47161;SDS011;32921;53.256;8.198;2023-05-07T00:14:43;30.92;;;20.42;;
47161;SDS011;32921;53.256;8.198;2023-05-07T00:17:10;31.05;;;19.88;;
47161;SDS011;32921;53.256;8.198;2023-05-07T00:19:36;32.40;;;16.80;;
47161;SDS011;32921;53.256;8.198;2023-05-07T00:22:01;32.53;;;19.65;;
47161;SDS011;32921;53.256;8.198;2023-05-07T00:24:27;27.08;;;12.73;;
47161;SDS011;32921;53.256;8.198;2023-05-07T00:26:52;31.25;;;20.38;;
47161;SDS011;32921;53.256;8.198;2023-05-07T00:29:18;24.20;;;13.48;;
47161;SDS011;32921;53.256;8.198;2023-05-07T00:31:44;34.22;;;19.77;;
47161;SDS011;32921;53.256;8.198;2023-05-07T00:34:09;35.22;;;18.80;;
47161;SDS011;32921;53.256;8.198;2023-05-07T00:36:35;29.23;;;18.40;;
47161;SDS011;32921;53.256;8.198;2023-05-07T00:39:00;31.27;;;17.95;;
47161;SDS011;32921;53.256;8.198;2023-05-07T00:41:28;34.25;;;18.73;;
47161;SDS011;32921;53.256;8.198;2023-05-07T00:43:55;32.30;;;20.40;;
47161;SDS011;32921;53.256;8.198;2023-05-07T00:46:21;34.83;;;20.85;;
47161;SDS011;32921;53.256;8.198;2023-05-07T00:48:47;29.17;;;19.08;;
47161;SDS011;32921;53.256;8.198;2023-05-07T00:51:14;31.50;;;20.35;;
47161;SDS011;32921;53.256;8.198;2023-05-07T00:53:40;25.10;;;12.15;;
47161;SDS011;32921;53.256;8.198;2023-05-07T00:56:06;33.40;;;21.02;;
47161;SDS011;32921;53.256;8.198;2023-05-07T00:58:32;33.83;;;20.55;;
47161;SDS011;32921;53.256;8.198;2023-05-07T01:00:58;38.75;;;24.52;;
47161;SDS011;32921;53.256;8.198;2023-05-07T01:03:24;29.73;;;17.88;;
47161;SDS011;32921;53.256;8.198;2023-05-07T01:05:50;33.90;;;21.42;;
47161;SDS011;32921;53.256;8.198;2023-05-07T01:08:17;34.55;;;23.23;;
47161;SDS011;32921;53.256;8.198;2023-05-07T01:10:43;29.23;;;18.73;;
47161;SDS011;32921;53.256;8.198;2023-05-07T01:13:09;35.13;;;23.70;;
47161;SDS011;32921;53.256;8.198;2023-05-07T01:15:36;31.40;;;23.25;;
47161;SDS011;32921;53.256;8.198;2023-05-07T01:18:02;28.25;;;17.95;;
47161;SDS011;32921;53.256;8.198;2023-05-07T01:20:28;27.88;;;18.63;;
47161;SDS011;32921;53.256;8.198;2023-05-07T01:22:55;27.70;;;17.90;;
47161;SDS011;32921;53.256;8.198;2023-05-07T01:25:22;31.35;;;22.52;;
47161;SDS011;32921;53.256;8.198;2023-05-07T01:27:48;33.92;;;23.25;;
47161;SDS011;32921;53.256;8.198;2023-05-07T01:30:13;35.83;;;22.30;;
47161;SDS011;32921;53.256;8.198;2023-05-07T01:32:48;31.88;;;22.20;;
47161;SDS011;32921;53.256;8.198;2023-05-07T01:35:22;34.97;;;21.98;;
47161;SDS011;32921;53.256;8.198;2023-05-07T01:37:53;27.73;;;16.55;;
47161;SDS011;32921;53.256;8.198;2023-05-07T01:40:19;37.13;;;24.38;;
47161;SDS011;32921;53.256;8.198;2023-05-07T01:42:45;34.10;;;23.05;;
47161;SDS011;32921;53.256;8.198;2023-05-07T01:45:13;31.77;;;18.77;;
47161;SDS011;32921;53.256;8.198;2023-05-07T01:47:38;34.97;;;17.45;;
47161;SDS011;32921;53.256;8.198;2023-05-07T01:50:07;35.25;;;23.10;;
47161;SDS011;32921;53.256;8.198;2023-05-07T01:52:34;26.02;;;14.57;;
47161;SDS011;32921;53.256;8.198;2023-05-07T01:54:59;23.90;;;13.20;;
47161;SDS011;32921;53.256;8.198;2023-05-07T01:57:25;33.10;;;21.52;;
47161;SDS011;32921;53.256;8.198;2023-05-07T01:59:51;31.23;;;21.13;;
47161;SDS011;32921;53.256;8.198;2023-05-07T02:02:16;27.65;;;17.90;;
47161;SDS011;32921;53.256;8.198;2023-05-07T02:04:42;33.22;;;19.02;;
47161;SDS011;32921;53.256;8.198;2023-05-07T02:07:07;25.90;;;16.52;;
47161;SDS011;32921;53.256;8.198;2023-05-07T02:09:33;27.25;;;16.65;;
47161;SDS011;32921;53.256;8.198;2023-05-07T02:11:58;22.00;;;12.30;;
47161;SDS011;32921;53.256;8.198;2023-05-07T02:14:24;24.60;;;16.00;;
47161;SDS011;32921;53.256;8.198;2023-05-07T02:16:51;28.02;;;17.98;;
47161;SDS011;32921;53.256;8.198;2023-05-07T02:19:16;26.85;;;19.83;;
47161;SDS011;32921;53.256;8.198;2023-05-07T02:21:43;27.27;;;18.25;;
47161;SDS011;32921;53.256;8.198;2023-05-07T02:24:08;26.85;;;18.25;;
47161;SDS011;32921;53.256;8.198;2023-05-07T02:26:34;22.67;;;12.30;;
47161;SDS011;32921;53.256;8.198;2023-05-07T02:28:59;29.08;;;19.92;;
47161;SDS011;32921;53.256;8.198;2023-05-07T02:31:25;28.02;;;17.02;;
47161;SDS011;32921;53.256;8.198;2023-05-07T02:33:51;29.25;;;18.90;;
47161;SDS011;32921;53.256;8.198;2023-05-07T02:36:16;26.25;;;18.23;;
47161;SDS011;32921;53.256;8.198;2023-05-07T02:38:42;27.30;;;18.33;;
47161;SDS011;32921;53.256;8.198;2023-05-07T02:41:07;27.92;;;19.10;;
47161;SDS011;32921;53.256;8.198;2023-05-07T02:43:33;20.73;;;13.70;;
47161;SDS011;32921;53.256;8.198;2023-05-07T02:48:28;29.10;;;20.63;;
47161;SDS011;32921;53.256;8.198;2023-05-07T02:50:53;31.27;;;21.58;;
47161;SDS011;32921;53.256;8.198;2023-05-07T02:53:19;29.45;;;18.77;;
47161;SDS011;32921;53.256;8.198;2023-05-07T02:55:44;36.50;;;23.38;;
47161;SDS011;32921;53.256;8.198;2023-05-07T02:58:10;25.77;;;16.02;;
47161;SDS011;32921;53.256;8.198;2023-05-07T03:00:36;34.03;;;19.45;;
47161;SDS011;32921;53.256;8.198;2023-05-07T03:03:01;34.28;;;23.92;;
47161;SDS011;32921;53.256;8.198;2023-05-07T03:05:27;31.92;;;20.17;;
47161;SDS011;32921;53.256;8.198;2023-05-07T03:07:52;22.02;;;14.50;;
47161;SDS011;32921;53.256;8.198;2023-05-07T03:10:18;33.35;;;23.52;;
47161;SDS011;32921;53.256;8.198;2023-05-07T03:12:43;35.47;;;23.38;;
47161;SDS011;32921;53.256;8.198;2023-05-07T03:15:09;34.47;;;22.00;;
47161;SDS011;32921;53.256;8.198;2023-05-07T03:17:36;29.75;;;17.85;;
47161;SDS011;32921;53.256;8.198;2023-05-07T03:20:02;36.50;;;24.10;;
47161;SDS011;32921;53.256;8.198;2023-05-07T03:22:27;41.90;;;24.85;;
47161;SDS011;32921;53.256;8.198;2023-05-07T03:24:53;33.42;;;17.52;;
47161;SDS011;32921;53.256;8.198;2023-05-07T03:27:19;34.17;;;22.70;;
47161;SDS011;32921;53.256;8.198;2023-05-07T03:29:44;36.08;;;23.33;;
47161;SDS011;32921;53.256;8.198;2023-05-07T03:32:10;33.10;;;22.17;;
47161;SDS011;32921;53.256;8.198;2023-05-07T03:34:35;39.80;;;26.77;;
47161;SDS011;32921;53.256;8.198;2023-05-07T03:37:01;35.38;;;23.83;;
47161;SDS011;32921;53.256;8.198;2023-05-07T03:39:26;26.88;;;15.60;;
47161;SDS011;32921;53.256;8.198;2023-05-07T03:41:52;38.95;;;24.20;;
47161;SDS011;32921;53.256;8.198;2023-05-07T03:44:18;31.90;;;17.75;;
47161;SDS011;32921;53.256;8.198;2023-05-07T03:46:43;30.50;;;17.38;;
47161;SDS011;32921;53.256;8.198;2023-05-07T03:49:09;22.75;;;11.95;;
47161;SDS011;32921;53.256;8.198;2023-05-07T03:51:34;34.00;;;20.67;;
47161;SDS011;32921;53.256;8.198;2023-05-07T03:54:01;31.42;;;20.30;;
47161;SDS011;32921;53.256;8.198;2023-05-07T03:56:26;29.33;;;19.35;;
47161;SDS011;32921;53.256;8.198;2023-05-07T03:58:52;24.35;;;13.38;;
47161;SDS011;32921;53.256;8.198;2023-05-07T04:01:19;26.70;;;16.35;;
47161;SDS011;32921;53.256;8.198;2023-05-07T04:03:44;31.50;;;19.92;;
47161;SDS011;32921;53.256;8.198;2023-05-07T04:06:10;26.08;;;14.90;;
47161;SDS011;32921;53.256;8.198;2023-05-07T04:08:35;26.23;;;16.25;;
47161;SDS011;32921;53.256;8.198;2023-05-07T04:11:01;30.95;;;16.98;;
47161;SDS011;32921;53.256;8.198;2023-05-07T04:13:27;28.90;;;15.80;;
47161;SDS011;32921;53.256;8.198;2023-05-07T04:15:55;35.40;;;23.17;;
47161;SDS011;32921;53.256;8.198;2023-05-07T04:18:21;34.50;;;23.42;;
47161;SDS011;32921;53.256;8.198;2023-05-07T04:20:49;24.77;;;12.77;;
47161;SDS011;32921;53.256;8.198;2023-05-07T04:23:15;38.65;;;24.48;;
47161;SDS011;32921;53.256;8.198;2023-05-07T04:25:40;33.17;;;19.17;;
47161;SDS011;32921;53.256;8.198;2023-05-07T04:28:06;39.15;;;24.02;;
47161;SDS011;32921;53.256;8.198;2023-05-07T04:30:32;35.25;;;19.58;;
47161;SDS011;32921;53.256;8.198;2023-05-07T04:32:57;35.40;;;20.42;;
47161;SDS011;32921;53.256;8.198;2023-05-07T04:35:23;42.22;;;26.70;;
47161;SDS011;32921;53.256;8.198;2023-05-07T04:37:48;26.40;;;15.00;;
47161;SDS011;32921;53.256;8.198;2023-05-07T04:40:14;38.97;;;24.95;;
47161;SDS011;32921;53.256;8.198;2023-05-07T04:42:40;40.40;;;25.80;;
47161;SDS011;32921;53.256;8.198;2023-05-07T04:45:06;29.17;;;17.42;;
47161;SDS011;32921;53.256;8.198;2023-05-07T04:47:33;37.63;;;24.27;;
47161;SDS011;32921;53.256;8.198;2023-05-07T04:49:59;36.65;;;25.27;;
47161;SDS011;32921;53.256;8.198;2023-05-07T04:52:24;29.25;;;15.90;;
47161;SDS011;32921;53.256;8.198;2023-05-07T04:54:50;34.03;;;23.08;;
47161;SDS011;32921;53.256;8.198;2023-05-07T04:57:15;35.63;;;22.02;;
47161;SDS011;32921;53.256;8.198;2023-05-07T04:59:42;30.60;;;19.25;;
47161;SDS011;32921;53.256;8.198;2023-05-07T05:02:08;30.98;;;17.80;;
47161;SDS011;32921;53.256;8.198;2023-05-07T05:04:35;36.17;;;21.35;;
47161;SDS011;32921;53.256;8.198;2023-05-07T05:07:01;24.88;;;15.38;;
47161;SDS011;32921;53.256;8.198;2023-05-07T05:09:29;30.40;;;16.08;;
47161;SDS011;32921;53.256;8.198;2023-05-07T05:11:54;43.22;;;26.15;;
47161;SDS011;32921;53.256;8.198;2023-05-07T05:14:20;30.63;;;17.77;;
47161;SDS011;32921;53.256;8.198;2023-05-07T05:16:46;38.70;;;26.15;;
47161;SDS011;32921;53.256;8.198;2023-05-07T05:19:11;38.65;;;24.77;;
47161;SDS011;32921;53.256;8.198;2023-05-07T05:21:37;34.25;;;22.17;;
47161;SDS011;32921;53.256;8.198;2023-05-07T05:24:02;25.52;;;14.10;;
47161;SDS011;32921;53.256;8.198;2023-05-07T05:26:28;24.55;;;14.38;;
47161;SDS011;32921;53.256;8.198;2023-05-07T05:28:54;24.80;;;13.25;;
47161;SDS011;32921;53.256;8.198;2023-05-07T05:31:19;23.17;;;15.73;;
47161;SDS011;32921;53.256;8.198;2023-05-07T05:33:45;15.88;;;10.07;;
47161;SDS011;32921;53.256;8.198;2023-05-07T05:36:10;21.23;;;11.32;;
47161;SDS011;32921;53.256;8.198;2023-05-07T05:38:37;20.55;;;13.80;;
47161;SDS011;32921;53.256;8.198;2023-05-07T05:41:03;15.02;;;8.65;;
47161;SDS011;32921;53.256;8.198;2023-05-07T05:43:29;23.48;;;13.43;;
47161;SDS011;32921;53.256;8.198;2023-05-07T05:45:55;22.88;;;11.23;;
47161;SDS011;32921;53.256;8.198;2023-05-07T05:48:21;24.42;;;16.88;;
47161;SDS011;32921;53.256;8.198;2023-05-07T05:50:46;27.17;;;16.30;;
47161;SDS011;32921;53.256;8.198;2023-05-07T05:53:12;24.10;;;16.00;;
47161;SDS011;32921;53.256;8.198;2023-05-07T05:55:37;27.48;;;17.50;;
47161;SDS011;32921;53.256;8.198;2023-05-07T05:58:03;28.23;;;18.27;;
47161;SDS011;32921;53.256;8.198;2023-05-07T06:00:29;28.13;;;17.23;;
47161;SDS011;32921;53.256;8.198;2023-05-07T06:02:54;27.02;;;18.17;;
47161;SDS011;32921;53.256;8.198;2023-05-07T06:05:20;29.77;;;18.95;;
47161;SDS011;32921;53.256;8.198;2023-05-07T06:07:46;25.10;;;13.98;;
47161;SDS011;32921;53.256;8.198;2023-05-07T06:10:11;25.42;;;18.58;;
47161;SDS011;32921;53.256;8.198;2023-05-07T06:12:37;16.55;;;11.50;;
47161;SDS011;32921;53.256;8.198;2023-05-07T06:15:03;20.75;;;12.57;;
47161;SDS011;32921;53.256;8.198;2023-05-07T06:17:29;22.05;;;12.30;;
47161;SDS011;32921;53.256;8.198;2023-05-07T06:19:55;25.08;;;14.48;;
47161;SDS011;32921;53.256;8.198;2023-05-07T06:22:21;25.38;;;14.52;;
47161;SDS011;32921;53.256;8.198;2023-05-07T06:24:46;20.80;;;13.93;;
47161;SDS011;32921;53.256;8.198;2023-05-07T06:27:12;17.17;;;10.93;;
47161;SDS011;32921;53.256;8.198;2023-05-07T06:29:37;24.10;;;14.30;;
47161;SDS011;32921;53.256;8.198;2023-05-07T06:32:09;19.13;;;12.30;;
47161;SDS011;32921;53.256;8.198;2023-05-07T06:34:36;22.15;;;15.05;;
47161;SDS011;32921;53.256;8.198;2023-05-07T06:37:03;20.85;;;13.27;;
47161;SDS011;32921;53.256;8.198;2023-05-07T06:39:28;22.13;;;15.05;;
47161;SDS011;32921;53.256;8.198;2023-05-07T06:41:54;15.77;;;9.63;;
47161;SDS011;32921;53.256;8.198;2023-05-07T06:44:20;17.88;;;10.75;;
47161;SDS011;32921;53.256;8.198;2023-05-07T06:46:45;17.50;;;9.00;;
47161;SDS011;32921;53.256;8.198;2023-05-07T06:49:14;22.77;;;15.10;;
47161;SDS011;32921;53.256;8.198;2023-05-07T06:51:40;17.20;;;11.43;;
47161;SDS011;32921;53.256;8.198;2023-05-07T06:54:05;20.02;;;14.27;;
47161;SDS011;32921;53.256;8.198;2023-05-07T06:56:31;19.60;;;12.52;;
47161;SDS011;32921;53.256;8.198;2023-05-07T06:58:57;20.17;;;13.93;;
47161;SDS011;32921;53.256;8.198;2023-05-07T07:01:24;17.50;;;11.98;;
47161;SDS011;32921;53.256;8.198;2023-05-07T07:03:50;21.15;;;14.45;;
47161;SDS011;32921;53.256;8.198;2023-05-07T07:06:16;19.02;;;13.77;;
47161;SDS011;32921;53.256;8.198;2023-05-07T07:08:42;19.20;;;14.35;;
47161;SDS011;32921;53.256;8.198;2023-05-07T07:11:08;12.98;;;7.00;;
47161;SDS011;32921;53.256;8.198;2023-05-07T07:13:33;16.00;;;11.73;;
47161;SDS011;32921;53.256;8.198;2023-05-07T07:15:59;15.38;;;11.65;;
47161;SDS011;32921;53.256;8.198;2023-05-07T07:18:25;17.20;;;10.63;;
47161;SDS011;32921;53.256;8.198;2023-05-07T07:20:51;13.10;;;9.65;;
47161;SDS011;32921;53.256;8.198;2023-05-07T07:23:16;12.50;;;7.70;;
47161;SDS011;32921;53.256;8.198;2023-05-07T07:25:42;13.75;;;9.55;;
47161;SDS011;32921;53.256;8.198;2023-05-07T07:28:07;16.10;;;11.50;;
47161;SDS011;32921;53.256;8.198;2023-05-07T07:30:33;13.88;;;9.75;;
47161;SDS011;32921;53.256;8.198;2023-05-07T07:32:58;15.75;;;9.35;;
47161;SDS011;32921;53.256;8.198;2023-05-07T07:35:30;14.38;;;9.50;;
47161;SDS011;32921;53.256;8.198;2023-05-07T07:37:58;15.45;;;11.10;;
47161;SDS011;32921;53.256;8.198;2023-05-07T07:40:24;10.90;;;6.78;;
47161;SDS011;32921;53.256;8.198;2023-05-07T07:42:50;14.15;;;10.05;;
47161;SDS011;32921;53.256;8.198;2023-05-07T07:45:16;14.60;;;10.18;;
47161;SDS011;32921;53.256;8.198;2023-05-07T07:47:42;12.95;;;9.13;;
47161;SDS011;32921;53.256;8.198;2023-05-07T07:50:08;9.48;;;5.13;;
47161;SDS011;32921;53.256;8.198;2023-05-07T07:52:34;12.27;;;8.63;;
47161;SDS011;32921;53.256;8.198;2023-05-07T07:54:59;10.32;;;6.80;;
47161;SDS011;32921;53.256;8.198;2023-05-07T07:57:25;13.75;;;10.65;;
47161;SDS011;32921;53.256;8.198;2023-05-07T07:59:51;14.60;;;10.15;;
47161;SDS011;32921;53.256;8.198;2023-05-07T08:02:16;13.10;;;9.30;;
47161;SDS011;32921;53.256;8.198;2023-05-07T08:04:42;11.07;;;5.25;;
47161;SDS011;32921;53.256;8.198;2023-05-07T08:07:11;12.18;;;9.77;;
47161;SDS011;32921;53.256;8.198;2023-05-07T08:09:37;11.15;;;6.95;;
47161;SDS011;32921;53.256;8.198;2023-05-07T08:12:03;10.57;;;6.97;;
47161;SDS011;32921;53.256;8.198;2023-05-07T08:14:30;13.88;;;9.68;;
47161;SDS011;32921;53.256;8.198;2023-05-07T08:16:55;14.90;;;9.85;;
47161;SDS011;32921;53.256;8.198;2023-05-07T08:19:21;13.68;;;9.88;;
47161;SDS011;32921;53.256;8.198;2023-05-07T08:21:47;13.82;;;10.15;;
47161;SDS011;32921;53.256;8.198;2023-05-07T08:24:13;13.25;;;7.72;;
47161;SDS011;32921;53.256;8.198;2023-05-07T08:26:39;11.10;;;7.10;;
47161;SDS011;32921;53.256;8.198;2023-05-07T08:29:05;15.20;;;9.88;;
47161;SDS011;32921;53.256;8.198;2023-05-07T08:31:31;13.45;;;10.25;;
47161;SDS011;32921;53.256;8.198;2023-05-07T08:33:57;10.90;;;7.80;;
47161;SDS011;32921;53.256;8.198;2023-05-07T08:36:23;17.77;;;9.57;;
47161;SDS011;32921;53.256;8.198;2023-05-07T08:38:49;12.18;;;9.13;;
47161;SDS011;32921;53.256;8.198;2023-05-07T08:41:15;12.70;;;9.82;;
47161;SDS011;32921;53.256;8.198;2023-05-07T08:43:41;9.10;;;5.90;;
47161;SDS011;32921;53.256;8.198;2023-05-07T08:46:10;8.45;;;5.05;;
47161;SDS011;32921;53.256;8.198;2023-05-07T08:48:36;11.35;;;9.27;;
47161;SDS011;32921;53.256;8.198;2023-05-07T08:51:02;13.32;;;9.13;;
47161;SDS011;32921;53.256;8.198;2023-05-07T08:53:28;11.98;;;8.63;;
47161;SDS011;32921;53.256;8.198;2023-05-07T08:55:54;10.82;;;9.07;;
47161;SDS011;32921;53.256;8.198;2023-05-07T08:58:20;9.93;;;5.82;;
47161;SDS011;32921;53.256;8.198;2023-05-07T09:00:46;11.82;;;8.70;;
47161;SDS011;32921;53.256;8.198;2023-05-07T09:03:12;12.25;;;6.05;;
47161;SDS011;32921;53.256;8.198;2023-05-07T09:05:39;12.48;;;8.65;;
47161;SDS011;32921;53.256;8.198;2023-05-07T09:08:05;9.98;;;5.90;;
47161;SDS011;32921;53.256;8.198;2023-05-07T09:10:32;9.02;;;6.45;;
47161;SDS011;32921;53.256;8.198;2023-05-07T09:12:59;9.45;;;5.80;;
47161;SDS011;32921;53.256;8.198;2023-05-07T09:15:26;11.13;;;8.38;;
47161;SDS011;32921;53.256;8.198;2023-05-07T09:17:53;11.80;;;8.13;;
47161;SDS011;32921;53.256;8.198;2023-05-07T09:20:19;11.57;;;8.60;;
47161;SDS011;32921;53.256;8.198;2023-05-07T09:22:45;13.75;;;9.27;;
47161;SDS011;32921;53.256;8.198;2023-05-07T09:25:10;10.77;;;7.05;;
47161;SDS011;32921;53.256;8.198;2023-05-07T09:27:36;10.57;;;6.95;;
47161;SDS011;32921;53.256;8.198;2023-05-07T09:30:05;8.88;;;4.60;;
47161;SDS011;32921;53.256;8.198;2023-05-07T09:32:35;9.05;;;6.43;;
47161;SDS011;32921;53.256;8.198;2023-05-07T09:35:04;10.50;;;6.07;;
47161;SDS011;32921;53.256;8.198;2023-05-07T09:37:31;9.55;;;5.72;;
47161;SDS011;32921;53.256;8.198;2023-05-07T09:39:57;9.05;;;6.13;;
47161;SDS011;32921;53.256;8.198;2023-05-07T09:42:24;8.73;;;6.00;;
47161;SDS011;32921;53.256;8.198;2023-05-07T09:44:52;8.60;;;6.90;;
47161;SDS011;32921;53.256;8.198;2023-05-07T09:47:18;8.32;;;5.20;;
47161;SDS011;32921;53.256;8.198;2023-05-07T09:49:46;10.80;;;7.75;;
47161;SDS011;32921;53.256;8.198;2023-05-07T09:52:13;13.77;;;7.50;;
47161;SDS011;32921;53.256;8.198;2023-05-07T09:54:40;8.73;;;6.65;;
47161;SDS011;32921;53.256;8.198;2023-05-07T09:57:09;9.00;;;5.47;;
47161;SDS011;32921;53.256;8.198;2023-05-07T09:59:38;8.52;;;6.18;;
47161;SDS011;32921;53.256;8.198;2023-05-07T10:02:08;10.48;;;6.90;;
47161;SDS011;32921;53.256;8.198;2023-05-07T10:04:35;10.10;;;6.40;;
47161;SDS011;32921;53.256;8.198;2023-05-07T10:07:01;9.82;;;5.88;;
47161;SDS011;32921;53.256;8.198;2023-05-07T10:09:29;10.23;;;6.75;;
47161;SDS011;32921;53.256;8.198;2023-05-07T10:11:56;8.77;;;5.82;;
47161;SDS011;32921;53.256;8.198;2023-05-07T10:14:22;10.35;;;7.10;;
47161;SDS011;32921;53.256;8.198;2023-05-07T10:16:48;10.43;;;6.80;;
47161;SDS011;32921;53.256;8.198;2023-05-07T10:19:14;10.05;;;6.93;;
47161;SDS011;32921;53.256;8.198;2023-05-07T10:21:43;9.15;;;7.15;;
47161;SDS011;32921;53.256;8.198;2023-05-07T10:24:25;7.82;;;5.68;;
47161;SDS011;32921;53.256;8.198;2023-05-07T10:26:52;9.82;;;6.60;;
47161;SDS011;32921;53.256;8.198;2023-05-07T10:29:21;8.35;;;6.13;;
47161;SDS011;32921;53.256;8.198;2023-05-07T10:34:29;8.18;;;5.05;;
47161;SDS011;32921;53.256;8.198;2023-05-07T10:37:01;9.73;;;7.03;;
47161;SDS011;32921;53.256;8.198;2023-05-07T10:39:27;8.10;;;6.07;;
47161;SDS011;32921;53.256;8.198;2023-05-07T10:41:53;11.27;;;5.22;;
47161;SDS011;32921;53.256;8.198;2023-05-07T10:44:25;8.57;;;5.25;;
47161;SDS011;32921;53.256;8.198;2023-05-07T10:47:03;11.85;;;7.50;;
47161;SDS011;32921;53.256;8.198;2023-05-07T10:49:30;10.10;;;5.75;;
47161;SDS011;32921;53.256;8.198;2023-05-07T10:55:40;10.85;;;6.85;;
47161;SDS011;32921;53.256;8.198;2023-05-07T10:57:44;9.50;;;6.05;;
47161;SDS011;32921;53.256;8.198;2023-05-07T11:00:56;8.07;;;6.20;;
47161;SDS011;32921;53.256;8.198;2023-05-07T11:05:25;8.30;;;6.32;;
47161;SDS011;32921;53.256;8.198;2023-05-07T11:07:57;13.80;;;7.55;;
47161;SDS011;32921;53.256;8.198;2023-05-07T11:16:21;11.13;;;8.55;;
47161;SDS011;32921;53.256;8.198;2023-05-07T11:18:48;11.52;;;7.47;;
47161;SDS011;32921;53.256;8.198;2023-05-07T11:24:04;9.18;;;6.50;;
47161;SDS011;32921;53.256;8.198;2023-05-07T11:26:41;11.75;;;6.70;;
47161;SDS011;32921;53.256;8.198;2023-05-07T11:29:14;8.77;;;5.80;;
47161;SDS011;32921;53.256;8.198;2023-05-07T11:34:22;9.05;;;7.40;;
47161;SDS011;32921;53.256;8.198;2023-05-07T11:36:49;10.38;;;6.53;;
47161;SDS011;32921;53.256;8.198;2023-05-07T11:41:54;7.93;;;5.72;;
47161;SDS011;32921;53.256;8.198;2023-05-07T11:44:19;8.98;;;6.15;;
47161;SDS011;32921;53.256;8.198;2023-05-07T11:46:45;11.02;;;6.88;;
47161;SDS011;32921;53.256;8.198;2023-05-07T11:49:11;10.88;;;6.88;;
47161;SDS011;32921;53.256;8.198;2023-05-07T11:51:37;8.25;;;6.50;;
47161;SDS011;32921;53.256;8.198;2023-05-07T11:54:03;10.48;;;6.00;;
47161;SDS011;32921;53.256;8.198;2023-05-07T11:56:33;9.32;;;6.25;;
47161;SDS011;32921;53.256;8.198;2023-05-07T11:59:03;11.52;;;6.20;;
47161;SDS011;32921;53.256;8.198;2023-05-07T12:01:29;9.82;;;7.25;;
47161;SDS011;32921;53.256;8.198;2023-05-07T12:03:55;13.32;;;7.70;;
47161;SDS011;32921;53.256;8.198;2023-05-07T12:06:20;9.20;;;6.43;;
47161;SDS011;32921;53.256;8.198;2023-05-07T12:08:46;10.85;;;7.40;;
47161;SDS011;32921;53.256;8.198;2023-05-07T12:11:15;10.05;;;7.00;;
47161;SDS011;32921;53.256;8.198;2023-05-07T12:13:46;10.45;;;5.68;;
47161;SDS011;32921;53.256;8.198;2023-05-07T12:16:12;13.70;;;5.65;;
47161;SDS011;32921;53.256;8.198;2023-05-07T12:18:38;10.82;;;7.95;;
47161;SDS011;32921;53.256;8.198;2023-05-07T12:21:05;9.73;;;5.97;;
47161;SDS011;32921;53.256;8.198;2023-05-07T12:23:31;12.43;;;8.07;;
47161;SDS011;32921;53.256;8.198;2023-05-07T12:25:58;12.35;;;9.18;;
47161;SDS011;32921;53.256;8.198;2023-05-07T12:28:24;9.35;;;5.10;;
47161;SDS011;32921;53.256;8.198;2023-05-07T12:30:50;9.77;;;6.20;;
47161;SDS011;32921;53.256;8.198;2023-05-07T12:33:17;11.98;;;6.75;;
47161;SDS011;32921;53.256;8.198;2023-05-07T12:35:45;11.57;;;8.05;;
47161;SDS011;32921;53.256;8.198;2023-05-07T12:38:13;10.32;;;7.45;;
47161;SDS011;32921;53.256;8.198;2023-05-07T12:40:44;14.05;;;7.82;;
47161;SDS011;32921;53.256;8.198;2023-05-07T12:43:30;9.30;;;7.30;;
47161;SDS011;32921;53.256;8.198;2023-05-07T12:45:57;13.05;;;7.15;;
47161;SDS011;32921;53.256;8.198;2023-05-07T12:48:25;10.75;;;7.43;;
47161;SDS011;32921;53.256;8.198;2023-05-07T12:50:55;8.63;;;5.63;;
47161;SDS011;32921;53.256;8.198;2023-05-07T12:53:22;10.55;;;7.60;;
47161;SDS011;32921;53.256;8.198;2023-05-07T12:55:50;11.27;;;8.32;;
47161;SDS011;32921;53.256;8.198;2023-05-07T12:58:21;12.38;;;8.55;;
47161;SDS011;32921;53.256;8.198;2023-05-07T13:00:58;8.88;;;6.93;;
47161;SDS011;32921;53.256;8.198;2023-05-07T13:03:32;10.57;;;7.45;;
47161;SDS011;32921;53.256;8.198;2023-05-07T13:05:59;8.00;;;4.10;;
47161;SDS011;32921;53.256;8.198;2023-05-07T13:08:33;11.30;;;8.87;;
47161;SDS011;32921;53.256;8.198;2023-05-07T13:11:02;11.43;;;6.50;;
47161;SDS011;32921;53.256;8.198;2023-05-07T13:13:32;9.32;;;6.93;;
47161;SDS011;32921;53.256;8.198;2023-05-07T13:15:59;11.10;;;7.97;;
47161;SDS011;32921;53.256;8.198;2023-05-07T13:18:25;10.05;;;6.63;;
47161;SDS011;32921;53.256;8.198;2023-05-07T13:20:51;12.18;;;7.13;;
47161;SDS011;32921;53.256;8.198;2023-05-07T13:23:18;9.00;;;5.93;;
47161;SDS011;32921;53.256;8.198;2023-05-07T13:25:43;9.57;;;6.95;;
47161;SDS011;32921;53.256;8.198;2023-05-07T13:28:09;8.05;;;5.00;;
47161;SDS011;32921;53.256;8.198;2023-05-07T13:30:35;10.18;;;7.70;;
47161;SDS011;32921;53.256;8.198;2023-05-07T13:33:00;13.98;;;7.55;;
47161;SDS011;32921;53.256;8.198;2023-05-07T13:35:26;11.18;;;8.35;;
47161;SDS011;32921;53.256;8.198;2023-05-07T13:37:51;11.23;;;7.68;;
47161;SDS011;32921;53.256;8.198;2023-05-07T13:40:18;9.68;;;7.25;;
47161;SDS011;32921;53.256;8.198;2023-05-07T13:42:44;11.00;;;7.60;;
47161;SDS011;32921;53.256;8.198;2023-05-07T13:45:10;10.90;;;8.02;;
47161;SDS011;32921;53.256;8.198;2023-05-07T13:47:38;9.27;;;5.97;;
47161;SDS011;32921;53.256;8.198;2023-05-07T13:50:08;9.98;;;7.35;;
47161;SDS011;32921;53.256;8.198;2023-05-07T13:52:36;9.18;;;6.82;;
47161;SDS011;32921;53.256;8.198;2023-05-07T13:55:02;9.77;;;5.55;;
47161;SDS011;32921;53.256;8.198;2023-05-07T13:57:28;9.45;;;6.90;;
47161;SDS011;32921;53.256;8.198;2023-05-07T13:59:53;9.57;;;7.07;;
47161;SDS011;32921;53.256;8.198;2023-05-07T14:02:19;11.57;;;6.22;;
47161;SDS011;32921;53.256;8.198;2023-05-07T14:04:44;8.43;;;6.57;;
47161;SDS011;32921;53.256;8.198;2023-05-07T14:07:10;8.57;;;6.50;;
47161;SDS011;32921;53.256;8.198;2023-05-07T14:09:36;10.30;;;6.88;;
47161;SDS011;32921;53.256;8.198;2023-05-07T14:12:01;6.22;;;4.10;;
47161;SDS011;32921;53.256;8.198;2023-05-07T14:14:27;9.82;;;6.60;;
47161;SDS011;32921;53.256;8.198;2023-05-07T14:16:52;9.63;;;6.20;;
47161;SDS011;32921;53.256;8.198;2023-05-07T14:19:18;7.68;;;5.35;;
47161;SDS011;32921;53.256;8.198;2023-05-07T14:21:44;9.27;;;4.20;;
47161;SDS011;32921;53.256;8.198;2023-05-07T14:24:09;8.43;;;5.32;;
47161;SDS011;32921;53.256;8.198;2023-05-07T14:26:35;7.18;;;4.85;;
47161;SDS011;32921;53.256;8.198;2023-05-07T14:29:01;8.68;;;4.88;;
47161;SDS011;32921;53.256;8.198;2023-05-07T14:31:27;8.85;;;5.03;;
47161;SDS011;32921;53.256;8.198;2023-05-07T14:33:52;7.63;;;5.03;;
47161;SDS011;32921;53.256;8.198;2023-05-07T14:36:18;7.78;;;3.90;;
47161;SDS011;32921;53.256;8.198;2023-05-07T14:38:46;6.28;;;4.60;;
47161;SDS011;32921;53.256;8.198;2023-05-07T14:41:12;7.20;;;3.92;;
47161;SDS011;32921;53.256;8.198;2023-05-07T14:43:37;7.47;;;5.10;;
47161;SDS011;32921;53.256;8.198;2023-05-07T14:46:03;5.68;;;4.10;;
47161;SDS011;32921;53.256;8.198;2023-05-07T14:48:29;6.65;;;4.47;;
47161;SDS011;32921;53.256;8.198;2023-05-07T14:50:54;5.65;;;3.70;;